Time;durP1;ratioP1;P1;durP2;ratioP2;P2;SDS_P1;SDS_P2;PMS_P1;PMS_P2;Temp;Humidity;BMP_temperature;BMP_pressure;BME280_temperature;BME280_humidity;BME280_pressure;Samples;Min_cycle;Max_cycle;Signal;HPM_P1;HPM_P2
2022/05/20 00:02:02;;;;;;;17.57;14.30;;;9.70;95.30;;;;;;4853052;29;20062;-70
2022/05/20 00:04:28;;;;;;;20.10;13.73;;;9.70;95.40;;;;;;4842700;29;20707;-70
2022/05/20 00:06:53;;;;;;;19.83;15.63;;;9.60;95.40;;;;;;4802778;29;20304;-70
2022/05/20 00:09:19;;;;;;;31.17;18.03;;;9.60;95.40;;;;;;4814455;29;20053;-71
2022/05/20 00:11:45;;;;;;;34.57;19.77;;;9.50;95.50;;;;;;4817650;29;20519;-70
2022/05/20 00:14:10;;;;;;;25.97;16.20;;;9.50;95.50;;;;;;4837085;29;20123;-70
2022/05/20 00:16:36;;;;;;;16.97;13.27;;;9.50;95.50;;;;;;4820015;29;20049;-70
2022/05/20 00:19:04;;;;;;;24.43;14.67;;;9.50;95.50;;;;;;4826507;29;20042;-71
2022/05/20 00:21:31;;;;;;;22.33;15.20;;;9.50;95.60;;;;;;4817523;29;20221;-71
2022/05/20 00:23:57;;;;;;;21.65;17.17;;;9.50;95.70;;;;;;4834808;29;20296;-70
2022/05/20 00:26:24;;;;;;;16.50;14.00;;;9.60;95.60;;;;;;4852953;29;20139;-71
2022/05/20 00:28:50;;;;;;;16.63;13.52;;;9.60;95.70;;;;;;4828533;29;20161;-70
2022/05/20 00:31:16;;;;;;;17.23;14.03;;;9.70;95.80;;;;;;4815474;29;20053;-70
2022/05/20 00:33:42;;;;;;;21.80;13.88;;;9.80;95.90;;;;;;4827278;29;20142;-70
2022/05/20 00:36:08;;;;;;;16.67;13.65;;;9.90;95.90;;;;;;4818096;29;20122;-69
2022/05/20 00:38:35;;;;;;;24.17;17.50;;;10.00;96.00;;;;;;4836111;29;20475;-70
2022/05/20 00:41:01;;;;;;;26.30;17.40;;;10.10;96.00;;;;;;4834655;29;20304;-70
2022/05/20 00:43:29;;;;;;;22.20;17.83;;;10.20;96.00;;;;;;4849005;29;20664;-70
2022/05/20 00:46:16;;;;;;;24.90;16.15;;;10.20;96.10;;;;;;4829168;29;20066;-70
2022/05/20 00:48:43;;;;;;;19.83;16.40;;;10.30;96.20;;;;;;4850419;29;20065;-71
2022/05/20 00:51:23;;;;;;;26.10;18.20;;;10.30;96.10;;;;;;4803839;29;20394;-71
2022/05/20 00:54:10;;;;;;;26.20;18.33;;;10.40;96.20;;;;;;4819371;29;20127;-71
2022/05/20 00:57:01;;;;;;;27.03;17.20;;;10.50;96.20;;;;;;4803777;29;20718;-71
2022/05/20 00:59:29;;;;;;;28.93;20.03;;;10.50;96.30;;;;;;4820741;29;20289;-71
2022/05/20 01:02:00;;;;;;;30.73;21.20;;;10.50;96.30;;;;;;4819262;29;20344;-70
2022/05/20 01:04:26;;;;;;;32.00;21.33;;;10.60;96.30;;;;;;4818631;29;20330;-70
2022/05/20 01:06:53;;;;;;;28.83;20.17;;;10.60;96.30;;;;;;4802171;29;20789;-70
2022/05/20 01:09:19;;;;;;;26.90;21.40;;;10.60;96.40;;;;;;4837124;29;20391;-70
2022/05/20 01:11:45;;;;;;;28.50;20.60;;;10.60;96.40;;;;;;4803424;29;21241;-70
2022/05/20 01:14:18;;;;;;;30.47;20.00;;;10.60;96.40;;;;;;4817824;29;20049;-70
2022/05/20 01:16:44;;;;;;;25.37;19.70;;;10.60;96.40;;;;;;4800907;29;20094;-70
2022/05/20 01:19:18;;;;;;;31.53;22.23;;;10.50;96.30;;;;;;4811458;29;20286;-70
2022/05/20 01:21:44;;;;;;;24.88;19.38;;;10.50;96.30;;;;;;4829621;29;20292;-70
2022/05/20 01:24:10;;;;;;;27.47;19.73;;;10.50;96.30;;;;;;4819001;29;20072;-70
2022/05/20 01:26:35;;;;;;;28.23;20.13;;;10.50;96.40;;;;;;4805733;29;20058;-70
2022/05/20 01:29:01;;;;;;;29.33;19.73;;;10.40;96.40;;;;;;4820207;29;20129;-70
2022/05/20 01:31:27;;;;;;;30.03;21.77;;;10.40;96.40;;;;;;4816934;29;20140;-70
2022/05/20 01:33:53;;;;;;;26.37;20.00;;;10.40;96.50;;;;;;4825716;29;20062;-70
2022/05/20 01:36:21;;;;;;;31.60;21.20;;;10.40;96.40;;;;;;4817176;29;20046;-70
2022/05/20 01:38:48;;;;;;;26.03;20.97;;;10.40;96.40;;;;;;4798900;29;20039;-70
2022/05/20 01:41:30;;;;;;;24.83;19.07;;;10.40;96.50;;;;;;4809012;29;20867;-70
2022/05/20 01:44:32;;;;;;;23.07;18.43;;;10.30;96.60;;;;;;4801355;29;20287;-70
2022/05/20 01:47:08;;;;;;;27.27;18.43;;;10.30;96.60;;;;;;4804390;29;20383;-72
2022/05/20 01:49:45;;;;;;;27.87;19.20;;;10.20;96.60;;;;;;4806086;29;20872;-71
2022/05/20 01:52:37;;;;;;;23.77;18.43;;;10.20;96.50;;;;;;4848699;29;20345;-71
2022/05/20 01:55:17;;;;;;;22.23;18.47;;;10.10;96.60;;;;;;4800427;29;20304;-71
2022/05/20 01:57:58;;;;;;;25.73;18.60;;;10.10;96.60;;;;;;4840247;29;20300;-71
2022/05/20 02:00:27;;;;;;;27.83;20.53;;;10.00;96.70;;;;;;4846114;29;20387;-71
2022/05/20 02:03:14;;;;;;;25.17;19.37;;;10.00;96.60;;;;;;4826008;29;20307;-71
2022/05/20 02:06:02;;;;;;;26.33;20.17;;;9.90;96.70;;;;;;4837401;29;20292;-71
2022/05/20 02:08:42;;;;;;;22.27;18.70;;;9.80;96.60;;;;;;4831392;29;20308;-71
2022/05/20 02:11:23;;;;;;;29.20;21.57;;;9.80;96.60;;;;;;4834758;29;20382;-71
2022/05/20 02:14:06;;;;;;;24.43;18.20;;;9.70;96.60;;;;;;4803013;29;20304;-71
2022/05/20 02:16:37;;;;;;;27.10;19.40;;;9.70;96.70;;;;;;4795911;29;20349;-71
2022/05/20 02:19:30;;;;;;;30.07;22.40;;;9.70;96.60;;;;;;4833646;29;20288;-71
2022/05/20 02:22:02;;;;;;;24.83;18.73;;;9.60;96.60;;;;;;4827805;29;20330;-71
2022/05/20 02:24:31;;;;;;;26.87;19.60;;;9.60;96.60;;;;;;4804398;29;20175;-71
2022/05/20 02:27:02;;;;;;;25.33;20.38;;;9.60;96.70;;;;;;4803271;29;20371;-70
2022/05/20 02:29:36;;;;;;;26.10;21.53;;;9.70;96.70;;;;;;4821380;29;20049;-71
2022/05/20 02:32:21;;;;;;;28.63;21.13;;;9.70;96.70;;;;;;4829183;29;20394;-70
2022/05/20 02:34:49;;;;;;;;;;;9.80;96.80;;;;;;4831698;29;20364;-70
2022/05/20 02:37:20;;;;;;;28.60;21.95;;;9.70;96.70;;;;;;4819339;29;20422;-70
2022/05/20 02:39:46;;;;;;;35.15;23.70;;;9.80;96.70;;;;;;4800868;29;20042;-70
2022/05/20 02:42:12;;;;;;;30.17;22.40;;;9.70;96.60;;;;;;4815990;29;20073;-71
2022/05/20 02:44:37;;;;;;;28.87;23.60;;;9.70;96.70;;;;;;4845143;29;20136;-70
2022/05/20 02:47:03;;;;;;;29.83;23.07;;;9.70;96.70;;;;;;4808307;29;20060;-70
2022/05/20 02:49:29;;;;;;;34.25;25.17;;;9.60;96.70;;;;;;4828088;29;20049;-70
2022/05/20 02:51:55;;;;;;;28.13;21.30;;;9.60;96.70;;;;;;4798942;29;20050;-70
2022/05/20 02:54:21;;;;;;;32.17;23.70;;;9.60;96.80;;;;;;4801273;29;20039;-70
2022/05/20 02:56:46;;;;;;;33.77;22.90;;;9.60;96.70;;;;;;4803278;29;20407;-70
2022/05/20 03:04:45;;;;;;;26.42;20.75;;;9.60;96.90;;;;;;4817326;29;20065;-70
2022/05/20 03:07:10;;;;;;;37.70;24.67;;;9.50;96.80;;;;;;4800930;29;20038;-70
2022/05/20 03:09:36;;;;;;;37.27;25.53;;;9.50;96.90;;;;;;4800491;29;20054;-70
2022/05/20 03:12:02;;;;;;;35.45;26.60;;;9.40;96.90;;;;;;4829902;29;20043;-70
2022/05/20 03:14:28;;;;;;;35.00;25.15;;;9.50;96.90;;;;;;4801091;29;20491;-70
2022/05/20 03:16:59;;;;;;;35.42;24.95;;;9.40;97.00;;;;;;4816598;29;20050;-71
2022/05/20 03:19:30;;;;;;;31.73;23.65;;;9.40;96.80;;;;;;4829817;29;20114;-71
2022/05/20 03:21:59;;;;;;;32.58;25.38;;;9.30;96.90;;;;;;4830451;29;20046;-71
2022/05/20 03:24:25;;;;;;;31.20;24.30;;;9.30;96.90;;;;;;4819756;29;20081;-69
2022/05/20 03:26:51;;;;;;;29.97;22.37;;;9.30;97.00;;;;;;4820230;29;20145;-69
2022/05/20 03:29:17;;;;;;;30.90;25.00;;;9.20;97.00;;;;;;4827564;29;20531;-69
2022/05/20 03:31:43;;;;;;;35.73;25.83;;;9.20;96.90;;;;;;4814054;29;20053;-69
2022/05/20 03:34:10;;;;;;;31.52;25.33;;;9.30;96.90;;;;;;4834403;29;20034;-69
2022/05/20 03:36:44;;;;;;;40.35;27.05;;;9.30;97.00;;;;;;4804567;29;21001;-69
2022/05/20 03:39:12;;;;;;;30.95;23.88;;;9.30;97.00;;;;;;4822057;29;20034;-69
2022/05/20 03:41:38;;;;;;;41.13;27.25;;;9.40;97.00;;;;;;4808959;29;20057;-70
2022/05/20 03:44:06;;;;;;;34.88;25.27;;;9.40;97.00;;;;;;4801149;29;20046;-70
2022/05/20 03:46:32;;;;;;;34.47;23.92;;;9.40;97.10;;;;;;4831995;29;20496;-70
2022/05/20 03:49:01;;;;;;;30.37;24.50;;;9.50;97.10;;;;;;4807460;29;20058;-70
2022/05/20 03:51:27;;;;;;;32.85;25.42;;;9.50;97.10;;;;;;4832860;29;20414;-70
2022/05/20 03:53:52;;;;;;;42.03;29.65;;;9.60;97.10;;;;;;4819167;29;20167;-70
2022/05/20 03:56:18;;;;;;;31.33;23.33;;;9.60;97.10;;;;;;4821050;29;20132;-70
2022/05/20 03:58:44;;;;;;;32.23;25.80;;;9.60;97.10;;;;;;4804029;29;20046;-70
2022/05/20 04:03:56;;;;;;;35.50;26.13;;;9.60;97.20;;;;;;4823693;29;20058;-70
2022/05/20 04:06:22;;;;;;;30.65;21.52;;;9.60;97.20;;;;;;4810752;29;20294;-70
2022/05/20 04:08:49;;;;;;;25.33;20.58;;;9.70;97.20;;;;;;4806312;29;20049;-69
2022/05/20 04:11:15;;;;;;;28.67;23.57;;;9.70;97.10;;;;;;4832287;29;20046;-70
2022/05/20 04:13:42;;;;;;;25.77;20.70;;;9.80;97.20;;;;;;4842345;29;20328;-71
2022/05/20 04:16:12;;;;;;;26.97;20.90;;;9.80;97.30;;;;;;4818073;29;20127;-70
2022/05/20 04:18:40;;;;;;;28.97;21.70;;;9.80;97.30;;;;;;4803410;29;20292;-70
2022/05/20 04:21:06;;;;;;;25.73;21.03;;;9.80;97.30;;;;;;4827571;29;20318;-71
2022/05/20 04:23:32;;;;;;;28.10;21.80;;;9.80;97.40;;;;;;4818056;29;20300;-71
2022/05/20 04:25:57;;;;;;;26.97;22.17;;;9.80;97.30;;;;;;4802489;29;20061;-71
2022/05/20 04:28:23;;;;;;;31.10;23.57;;;9.80;97.40;;;;;;4821283;29;20352;-71
2022/05/20 04:30:56;;;;;;;28.80;22.60;;;9.90;97.40;;;;;;4802852;29;20081;-71
2022/05/20 04:33:22;;;;;;;27.17;21.87;;;9.90;97.50;;;;;;4818342;29;20622;-71
2022/05/20 04:35:47;;;;;;;27.70;21.03;;;9.90;97.50;;;;;;4818485;29;20889;-71
2022/05/20 04:38:13;;;;;;;32.80;24.00;;;9.90;97.50;;;;;;4836826;29;20310;-71
2022/05/20 04:40:39;;;;;;;26.77;19.63;;;9.90;97.50;;;;;;4809227;29;20042;-70
2022/05/20 04:48:33;;;;;;;35.90;20.10;;;10.00;97.60;;;;;;4831451;29;20058;-71
2022/05/20 04:50:59;;;;;;;37.27;19.20;;;10.10;97.60;;;;;;4798597;29;20376;-71
2022/05/20 04:56:09;;;;;;;25.40;18.97;;;10.40;97.70;;;;;;4820725;29;20042;-71
2022/05/20 04:58:35;;;;;;;20.30;17.50;;;10.70;97.80;;;;;;4828459;29;20295;-71
2022/05/20 05:01:01;;;;;;;23.70;19.10;;;10.90;97.70;;;;;;4817912;29;20565;-71
2022/05/20 05:03:27;;;;;;;23.80;20.10;;;10.90;97.80;;;;;;4843864;29;20288;-70
2022/05/20 05:05:53;;;;;;;24.03;20.30;;;11.00;97.70;;;;;;4813675;29;20189;-70
2022/05/20 05:08:18;;;;;;;29.70;22.30;;;11.50;98.00;;;;;;4818939;29;20034;-71
2022/05/20 05:10:45;;;;;;;28.47;22.63;;;12.00;98.00;;;;;;4804879;29;20042;-71
2022/05/20 05:13:13;;;;;;;29.63;24.10;;;12.30;98.00;;;;;;4802458;29;20050;-70
2022/05/20 05:15:42;;;;;;;25.47;22.27;;;12.80;98.20;;;;;;4821630;29;20288;-70
2022/05/20 05:18:14;;;;;;;27.33;24.27;;;13.60;98.40;;;;;;4837908;29;20534;-71
2022/05/20 05:20:51;;;;;;;24.87;21.33;;;14.40;98.40;;;;;;4806192;29;20789;-70
2022/05/20 05:23:18;;;;;;;27.80;23.30;;;15.20;98.10;;;;;;4847940;29;20303;-70
2022/05/20 05:25:45;;;;;;;21.50;18.30;;;15.90;96.80;;;;;;4806333;29;20311;-70
2022/05/20 05:28:11;;;;;;;22.23;16.23;;;16.70;93.20;;;;;;4812557;29;20472;-70
2022/05/20 05:30:37;;;;;;;19.43;16.17;;;17.40;88.20;;;;;;4824006;29;20393;-70
2022/05/20 05:33:03;;;;;;;15.63;13.23;;;17.80;84.60;;;;;;4843259;29;20702;-71
2022/05/20 05:35:31;;;;;;;15.60;13.87;;;18.30;82.50;;;;;;4810833;29;20038;-71
2022/05/20 05:37:56;;;;;;;17.30;13.10;;;18.70;81.10;;;;;;4817921;29;20809;-71
2022/05/20 05:40:26;;;;;;;17.30;13.03;;;18.90;79.20;;;;;;4810562;29;20325;-71
2022/05/20 05:42:54;;;;;;;17.57;12.17;;;19.30;80.20;;;;;;4801402;29;20090;-71
2022/05/20 05:45:22;;;;;;;15.90;12.60;;;19.20;77.30;;;;;;4825316;29;20760;-71
2022/05/20 05:47:53;;;;;;;19.37;12.43;;;19.00;76.30;;;;;;4827844;29;20291;-71
2022/05/20 05:50:20;;;;;;;15.43;11.23;;;19.10;77.30;;;;;;4809224;29;20713;-71
2022/05/20 05:52:46;;;;;;;15.60;11.53;;;19.30;76.50;;;;;;4809955;29;20379;-71
2022/05/20 05:55:12;;;;;;;16.07;9.93;;;19.60;75.10;;;;;;4817102;29;20971;-71
2022/05/20 05:57:37;;;;;;;16.03;10.73;;;19.70;74.70;;;;;;4859697;29;20342;-71
2022/05/20 06:00:04;;;;;;;11.87;8.63;;;19.90;75.70;;;;;;4817292;29;20502;-71
2022/05/20 06:02:30;;;;;;;18.10;10.13;;;19.90;74.80;;;;;;4801839;29;20082;-71
2022/05/20 06:04:56;;;;;;;14.07;9.33;;;19.90;74.90;;;;;;4817883;29;20338;-71
2022/05/20 06:07:22;;;;;;;14.10;9.30;;;20.00;74.40;;;;;;4809699;29;20054;-71
2022/05/20 06:09:47;;;;;;;14.90;8.70;;;19.90;73.00;;;;;;4816945;29;20356;-71
2022/05/20 06:12:14;;;;;;;15.13;8.53;;;19.90;72.20;;;;;;4806512;29;20043;-71
2022/05/20 06:14:40;;;;;;;14.63;8.10;;;19.20;72.70;;;;;;4810389;29;20048;-71
2022/05/20 06:17:11;;;;;;;16.23;8.77;;;18.30;74.10;;;;;;4833553;29;20306;-71
2022/05/20 06:19:37;;;;;;;15.73;8.40;;;17.70;75.90;;;;;;4772550;29;20403;-72
2022/05/20 06:22:03;;;;;;;15.33;8.77;;;17.20;77.10;;;;;;4789209;29;20832;-71
2022/05/20 06:24:29;;;;;;;12.10;8.63;;;16.90;78.20;;;;;;4813513;29;20374;-71
2022/05/20 06:26:55;;;;;;;14.60;8.20;;;16.70;78.80;;;;;;4822679;29;20059;-71
2022/05/20 06:29:21;;;;;;;14.43;8.77;;;16.40;79.20;;;;;;4813841;29;20054;-71
2022/05/20 06:31:47;;;;;;;11.30;7.27;;;16.10;80.00;;;;;;4794637;29;20568;-71
2022/05/20 06:34:12;;;;;;;12.63;7.43;;;16.10;79.60;;;;;;4804319;29;20367;-71
2022/05/20 06:42:07;;;;;;;12.77;7.82;;;17.40;77.50;;;;;;4803812;29;20811;-71
2022/05/20 06:44:33;;;;;;;12.43;8.43;;;17.60;76.40;;;;;;4805387;29;20054;-71
2022/05/20 06:46:59;;;;;;;11.40;7.97;;;17.50;75.80;;;;;;4817584;29;20606;-72
2022/05/20 06:49:24;;;;;;;11.57;7.37;;;17.50;75.50;;;;;;4812818;29;20134;-71
2022/05/20 06:51:54;;;;;;;13.17;7.40;;;17.40;74.30;;;;;;4801713;29;20874;-72
2022/05/20 06:54:20;;;;;;;14.90;7.27;;;17.30;75.40;;;;;;4802859;29;20046;-71
2022/05/20 06:56:46;;;;;;;10.90;7.20;;;17.20;76.20;;;;;;4797559;29;20284;-71
2022/05/20 06:59:13;;;;;;;9.50;6.77;;;17.10;76.00;;;;;;4830876;29;20345;-71
2022/05/20 07:01:39;;;;;;;10.37;8.17;;;17.10;76.60;;;;;;4792285;29;20304;-71
2022/05/20 07:04:06;;;;;;;11.80;7.87;;;17.20;77.60;;;;;;4829822;29;20872;-71
2022/05/20 07:06:32;;;;;;;11.57;7.90;;;17.10;77.50;;;;;;4792502;29;20202;-71
2022/05/20 07:08:58;;;;;;;8.93;6.73;;;17.00;77.50;;;;;;4816850;29;20758;-71
2022/05/20 07:11:25;;;;;;;13.33;7.63;;;16.70;77.40;;;;;;4804501;29;20051;-71
2022/05/20 07:13:55;;;;;;;13.10;6.90;;;16.50;77.10;;;;;;4816666;29;20300;-71
2022/05/20 07:16:23;;;;;;;14.50;7.60;;;16.20;76.70;;;;;;4801243;29;20300;-71
2022/05/20 07:18:49;;;;;;;12.13;6.87;;;16.10;78.50;;;;;;4832196;29;20333;-71
2022/05/20 07:21:15;;;;;;;11.77;7.17;;;16.10;78.50;;;;;;4804713;29;20339;-71
2022/05/20 07:23:41;;;;;;;15.07;6.80;;;16.10;79.30;;;;;;4814262;29;20043;-71
2022/05/20 07:26:08;;;;;;;9.27;6.60;;;16.10;79.20;;;;;;4817324;29;20311;-71
2022/05/20 07:28:34;;;;;;;10.80;7.17;;;16.10;78.00;;;;;;4802125;29;20103;-71
2022/05/20 07:31:01;;;;;;;12.40;7.80;;;16.20;77.40;;;;;;4809448;29;20315;-71
2022/05/20 07:33:28;;;;;;;13.77;8.13;;;16.10;76.40;;;;;;4823344;29;20293;-71
2022/05/20 07:35:55;;;;;;;10.33;6.90;;;16.20;76.90;;;;;;4804129;29;20328;-71
2022/05/20 07:38:21;;;;;;;14.57;7.00;;;16.40;77.00;;;;;;4838819;29;20370;-71
2022/05/20 07:40:47;;;;;;;9.40;6.10;;;16.60;76.50;;;;;;4833750;29;20380;-71
2022/05/20 07:43:13;;;;;;;9.00;5.67;;;16.80;75.70;;;;;;4836561;29;20097;-71
2022/05/20 07:45:39;;;;;;;9.23;6.70;;;16.80;76.20;;;;;;4802179;29;20092;-71
2022/05/20 07:48:05;;;;;;;9.00;6.43;;;16.90;75.90;;;;;;4805481;29;20114;-71
2022/05/20 07:50:36;;;;;;;9.20;6.40;;;16.90;75.40;;;;;;4788206;29;20372;-72
2022/05/20 07:53:20;;;;;;;9.30;5.93;;;16.90;75.40;;;;;;4824732;29;20316;-71
2022/05/20 07:55:48;;;;;;;8.87;6.20;;;17.00;74.90;;;;;;4787049;29;20303;-71
2022/05/20 07:58:18;;;;;;;7.93;5.13;;;17.10;75.70;;;;;;4830720;29;20707;-71
2022/05/20 08:00:44;;;;;;;8.03;4.43;;;17.20;74.10;;;;;;4818862;29;20355;-71
2022/05/20 08:03:13;;;;;;;6.93;4.13;;;17.30;73.40;;;;;;4785210;29;20856;-71
2022/05/20 08:05:39;;;;;;;8.37;4.00;;;17.30;73.20;;;;;;4831594;29;20046;-71
2022/05/20 08:08:07;;;;;;;8.57;3.80;;;17.20;71.50;;;;;;4832698;29;20086;-71
2022/05/20 08:10:35;;;;;;;6.77;3.70;;;17.10;71.30;;;;;;4823845;29;20308;-71
2022/05/20 08:13:02;;;;;;;9.00;4.80;;;17.10;73.20;;;;;;4813733;29;20699;-71
2022/05/20 08:15:31;;;;;;;10.73;4.77;;;17.10;71.10;;;;;;4800110;29;20296;-71
2022/05/20 08:17:57;;;;;;;8.30;5.00;;;17.30;72.30;;;;;;4813448;29;20304;-71
2022/05/20 08:20:30;;;;;;;9.40;5.63;;;17.40;72.30;;;;;;4784116;29;20288;-71
2022/05/20 08:22:56;;;;;;;9.30;5.90;;;17.40;71.60;;;;;;4786225;29;20047;-71
2022/05/20 08:25:24;;;;;;;9.80;5.47;;;17.40;71.50;;;;;;4781590;29;20778;-71
2022/05/20 08:27:51;;;;;;;9.07;5.60;;;17.60;73.90;;;;;;4796960;29;20312;-71
2022/05/20 08:30:20;;;;;;;8.87;6.03;;;17.70;72.10;;;;;;4798128;29;20171;-71
2022/05/20 08:32:46;;;;;;;9.60;5.80;;;17.80;70.90;;;;;;4829511;29;20043;-71
2022/05/20 08:35:13;;;;;;;6.97;5.47;;;17.80;71.30;;;;;;4812875;29;20054;-71
2022/05/20 08:37:42;;;;;;;10.00;6.40;;;17.80;70.70;;;;;;4799671;29;20051;-71
2022/05/20 08:40:10;;;;;;;8.30;6.87;;;17.80;70.10;;;;;;4829671;29;20518;-71
2022/05/20 08:42:36;;;;;;;10.17;7.13;;;17.80;71.00;;;;;;4828175;29;20054;-71
2022/05/20 08:45:05;;;;;;;10.37;7.03;;;17.90;70.90;;;;;;4782707;29;20531;-71
2022/05/20 08:47:39;;;;;;;11.67;6.70;;;17.90;69.70;;;;;;4798937;29;20086;-71
2022/05/20 08:50:12;;;;;;;11.70;6.70;;;18.00;68.60;;;;;;4801539;29;20051;-71
2022/05/20 08:52:38;;;;;;;10.87;5.90;;;18.00;67.70;;;;;;4799738;29;20582;-71
2022/05/20 08:55:04;;;;;;;11.50;6.17;;;18.10;68.60;;;;;;4799162;29;20559;-71
2022/05/20 08:57:33;;;;;;;10.40;6.60;;;18.10;68.80;;;;;;4800580;29;20525;-69
2022/05/20 09:00:01;;;;;;;9.60;6.03;;;18.20;68.80;;;;;;4787384;29;20150;-68
2022/05/20 09:02:27;;;;;;;10.70;6.60;;;18.30;67.50;;;;;;4817672;29;20087;-68
2022/05/20 09:04:52;;;;;;;11.70;6.23;;;18.30;68.10;;;;;;4787121;29;20421;-68
2022/05/20 09:07:20;;;;;;;10.03;6.30;;;18.30;68.90;;;;;;4799940;29;20051;-68
2022/05/20 09:09:52;;;;;;;12.63;6.50;;;18.30;67.50;;;;;;4801651;29;20094;-68
2022/05/20 09:12:31;;;;;;;11.40;7.00;;;18.40;68.20;;;;;;4802219;29;20076;-68
2022/05/20 09:17:48;;;;;;;11.03;6.73;;;18.50;67.80;;;;;;4831158;29;20047;-71
2022/05/20 09:20:18;;;;;;;8.03;6.23;;;18.60;65.20;;;;;;4827144;29;20057;-71
2022/05/20 09:22:58;;;;;;;9.50;6.13;;;18.60;66.10;;;;;;4799700;29;20398;-71
2022/05/20 09:25:29;;;;;;;9.50;5.77;;;18.70;64.30;;;;;;4826861;29;20133;-71
2022/05/20 09:28:14;;;;;;;8.30;5.87;;;18.70;65.20;;;;;;4794025;29;20449;-71
2022/05/20 09:30:41;;;;;;;12.90;6.35;;;18.80;64.10;;;;;;4815944;29;20106;-71
2022/05/20 09:33:15;;;;;;;10.47;6.50;;;18.80;64.00;;;;;;4826466;29;20577;-71
2022/05/20 09:35:46;;;;;;;10.77;5.97;;;18.80;64.70;;;;;;4796659;29;20489;-71
2022/05/20 09:38:40;;;;;;;10.33;6.17;;;18.80;64.80;;;;;;4813423;29;20038;-69
2022/05/20 09:41:15;;;;;;;10.30;6.87;;;18.70;62.60;;;;;;4795980;29;20054;-69
2022/05/20 09:43:44;;;;;;;10.50;5.97;;;18.70;64.70;;;;;;4799750;29;20535;-68
2022/05/20 09:46:31;;;;;;;8.60;5.20;;;18.70;64.20;;;;;;4799448;29;20572;-68
2022/05/20 09:49:52;;;;;;;9.27;5.80;;;18.50;63.40;;;;;;4799233;29;20415;-68
2022/05/20 09:52:26;;;;;;;8.40;5.83;;;18.40;62.50;;;;;;4793715;29;20054;-68
2022/05/20 09:55:05;;;;;;;8.07;5.77;;;18.40;65.10;;;;;;4814586;29;20046;-68
2022/05/20 09:57:42;;;;;;;8.20;5.90;;;18.50;64.80;;;;;;4783101;29;20133;-69
2022/05/20 10:00:28;;;;;;;9.23;5.73;;;18.50;64.50;;;;;;4791359;29;20456;-69
2022/05/20 10:03:14;;;;;;;6.83;5.30;;;18.50;64.30;;;;;;4813361;29;20038;-68
2022/05/20 10:06:02;;;;;;;8.47;5.60;;;18.50;65.00;;;;;;4830669;29;20069;-68
2022/05/20 10:08:34;;;;;;;8.47;5.00;;;18.50;64.50;;;;;;4809410;29;20047;-68
2022/05/20 10:11:28;;;;;;;10.10;4.97;;;18.40;63.10;;;;;;4781883;29;20062;-71
2022/05/20 10:14:17;;;;;;;8.70;4.90;;;18.40;61.00;;;;;;4785534;29;20042;-68
2022/05/20 10:16:57;;;;;;;7.60;5.20;;;18.30;63.20;;;;;;4794686;29;20031;-68
2022/05/20 10:19:43;;;;;;;6.83;4.60;;;18.40;62.50;;;;;;4822520;29;20126;-68
2022/05/20 10:22:57;;;;;;;7.60;4.57;;;18.50;62.60;;;;;;4815900;29;20045;-68
2022/05/20 10:25:30;;;;;;;7.13;4.73;;;18.60;60.70;;;;;;4795156;29;20138;-70
2022/05/20 10:34:17;;;;;;;10.30;4.50;;;18.80;61.20;;;;;;4829148;29;20440;-71
2022/05/20 10:37:05;;;;;;;7.10;4.93;;;18.80;62.30;;;;;;4831630;29;20046;-71
2022/05/20 10:39:59;;;;;;;6.43;4.73;;;18.80;62.00;;;;;;4795234;29;20050;-70
2022/05/20 10:42:46;;;;;;;7.33;4.83;;;18.90;60.30;;;;;;4813413;29;20138;-71
2022/05/20 10:48:54;;;;;;;11.30;6.30;;;18.90;60.10;;;;;;4800197;29;20050;-71
2022/05/20 10:51:41;;;;;;;8.87;6.27;;;18.90;59.60;;;;;;4799514;29;20065;-68
2022/05/20 10:54:51;;;;;;;11.57;5.67;;;19.00;62.80;;;;;;4782810;29;20567;-68
2022/05/20 10:57:31;;;;;;;9.03;4.73;;;19.10;59.40;;;;;;4805968;29;20039;-68
2022/05/20 11:00:18;;;;;;;9.40;5.07;;;19.10;60.30;;;;;;4827803;29;20046;-68
2022/05/20 11:02:49;;;;;;;9.03;5.17;;;19.10;59.50;;;;;;4809947;29;20039;-68
2022/05/20 11:05:39;;;;;;;7.83;5.00;;;19.20;61.00;;;;;;4816194;29;20133;-68
2022/05/20 11:08:15;;;;;;;8.77;5.60;;;19.30;58.20;;;;;;4814227;29;20442;-68
2022/05/20 11:11:08;;;;;;;8.90;5.57;;;19.40;60.20;;;;;;4824047;29;20038;-68
2022/05/20 11:13:55;;;;;;;7.40;6.00;;;19.60;59.70;;;;;;4823903;29;20054;-68
2022/05/20 11:16:43;;;;;;;9.40;6.27;;;19.70;60.00;;;;;;4809527;29;20286;-68
2022/05/20 11:19:18;;;;;;;9.07;5.17;;;19.80;59.80;;;;;;4830592;29;20508;-68
2022/05/20 11:22:02;;;;;;;5.90;5.28;;;19.80;59.00;;;;;;4811096;29;20057;-68
2022/05/20 11:24:45;;;;;;;10.13;5.70;;;19.90;58.60;;;;;;4780231;29;20086;-70
2022/05/20 11:27:25;;;;;;;7.23;5.30;;;20.00;57.90;;;;;;4815114;29;20115;-71
2022/05/20 11:30:20;;;;;;;8.30;5.23;;;20.00;57.70;;;;;;4813499;29;20050;-71
2022/05/20 11:33:04;;;;;;;11.03;5.80;;;19.90;58.40;;;;;;4808781;29;20109;-69
2022/05/20 11:35:37;;;;;;;8.67;5.10;;;20.00;60.30;;;;;;4827979;29;20057;-68
2022/05/20 11:38:21;;;;;;;7.80;5.53;;;20.00;58.60;;;;;;4816351;29;20038;-68
2022/05/20 11:40:54;;;;;;;6.30;4.70;;;19.90;58.70;;;;;;4794536;29;20069;-68
2022/05/20 11:43:39;;;;;;;6.37;4.10;;;19.90;59.00;;;;;;4817007;29;20053;-68
2022/05/20 11:46:29;;;;;;;5.88;3.72;;;19.90;56.50;;;;;;4832728;29;20046;-68
2022/05/20 11:49:29;;;;;;;5.87;4.03;;;20.00;56.00;;;;;;4822617;29;20050;-68
2022/05/20 11:52:05;;;;;;;6.73;4.17;;;20.00;57.00;;;;;;4815446;29;20050;-68
2022/05/20 11:54:54;;;;;;;6.60;4.80;;;19.90;57.30;;;;;;4818657;29;20050;-68
2022/05/20 11:57:25;;;;;;;9.47;5.13;;;20.10;55.80;;;;;;4830987;29;20754;-68
2022/05/20 12:00:03;;;;;;;6.83;4.93;;;20.20;57.70;;;;;;4804150;29;20045;-68
2022/05/20 12:02:32;;;;;;;6.03;3.80;;;20.10;56.20;;;;;;4827464;29;20046;-68
2022/05/20 12:05:00;;;;;;;5.53;3.50;;;20.10;55.30;;;;;;4800734;29;20039;-68
2022/05/20 12:07:26;;;;;;;5.73;3.20;;;20.20;55.30;;;;;;4804136;29;20598;-67
2022/05/20 12:09:55;;;;;;;7.00;3.67;;;20.10;55.10;;;;;;4785773;29;20050;-67
2022/05/20 12:12:30;;;;;;;6.67;4.30;;;20.10;55.70;;;;;;4802090;29;20052;-67
2022/05/20 12:15:42;;;;;;;5.87;4.30;;;20.00;55.30;;;;;;4830122;29;20051;-67
2022/05/20 12:24:11;;;;;;;6.60;4.33;;;20.00;54.60;;;;;;4828702;29;20107;-67
2022/05/20 12:24:15;;;;;;;7.13;3.60;;;19.90;55.80;;;;;;4833395;29;20464;-67
2022/05/20 12:26:49;;;;;;;20.70;3.53;;;19.80;53.30;;;;;;4830844;29;20141;-67
2022/05/20 12:29:45;;;;;;;6.87;3.90;;;19.60;55.40;;;;;;4800497;29;20061;-67
2022/05/20 12:32:24;;;;;;;5.33;3.63;;;19.50;53.20;;;;;;4817273;29;20292;-67
2022/05/20 12:35:07;;;;;;;8.00;4.60;;;19.30;55.20;;;;;;4816799;29;20046;-67
2022/05/20 12:37:42;;;;;;;9.70;6.60;;;19.20;56.50;;;;;;4813047;29;20326;-67
2022/05/20 12:40:37;;;;;;;;;;;19.30;57.70;;;;;;4816355;29;20082;-67
2022/05/20 12:43:02;;;;;;;9.30;7.53;;;19.50;57.20;;;;;;4802380;29;19928;-67
2022/05/20 12:45:34;;;;;;;9.87;7.50;;;19.70;57.80;;;;;;4805689;29;20424;-67
2022/05/20 12:48:00;;;;;;;9.03;6.60;;;19.90;57.60;;;;;;4806223;29;20091;-67
2022/05/20 12:50:27;;;;;;;9.33;6.40;;;20.00;56.20;;;;;;4803707;29;20095;-67
2022/05/20 12:53:02;;;;;;;8.63;6.00;;;20.10;55.50;;;;;;4806794;29;20564;-67
2022/05/20 12:55:37;;;;;;;7.10;5.63;;;20.10;55.00;;;;;;4789719;29;20082;-67
2022/05/20 12:58:05;;;;;;;8.48;5.55;;;20.00;55.50;;;;;;4817448;29;20137;-67
2022/05/20 13:00:33;;;;;;;8.43;5.13;;;19.70;54.80;;;;;;4819635;29;20065;-67
2022/05/20 13:03:04;;;;;;;7.23;5.93;;;19.50;55.10;;;;;;4825084;29;20228;-67
2022/05/20 13:05:48;;;;;;;7.97;5.27;;;19.30;55.00;;;;;;4800501;29;20051;-67
2022/05/20 13:08:19;;;;;;;5.97;4.97;;;19.10;55.80;;;;;;4831440;29;20055;-67
2022/05/20 13:10:45;;;;;;;7.67;5.43;;;18.90;57.30;;;;;;4829796;29;20069;-67
2022/05/20 13:13:31;;;;;;;6.60;4.93;;;18.70;58.30;;;;;;4818593;29;20047;-67
2022/05/20 13:16:00;;;;;;;6.07;4.60;;;18.60;57.80;;;;;;4800830;29;20551;-67
2022/05/20 13:18:29;;;;;;;4.80;3.53;;;18.60;58.00;;;;;;4801328;29;20043;-67
2022/05/20 13:21:05;;;;;;;7.33;4.20;;;18.50;57.70;;;;;;4819923;29;20070;-67
2022/05/20 13:23:36;;;;;;;4.30;3.80;;;18.40;57.40;;;;;;4831637;29;20064;-67
2022/05/20 13:26:03;;;;;;;4.80;3.77;;;18.30;57.90;;;;;;4795942;29;20488;-67
2022/05/20 13:28:35;;;;;;;5.33;3.67;;;18.10;57.30;;;;;;4813178;29;20123;-67
2022/05/20 13:31:05;;;;;;;7.53;4.83;;;18.10;57.60;;;;;;4784824;29;20441;-69
2022/05/20 13:33:33;;;;;;;8.00;4.53;;;18.00;57.90;;;;;;4785128;29;20042;-69
2022/05/20 13:36:01;;;;;;;10.67;5.80;;;17.90;60.10;;;;;;4829328;29;20064;-69
2022/05/20 13:38:31;;;;;;;9.60;5.63;;;17.80;62.20;;;;;;4805626;29;20057;-69
2022/05/20 13:40:57;;;;;;;12.97;6.40;;;17.70;64.50;;;;;;4810817;29;20054;-69